createdAt,value
2023-02-18T00:02:52.828Z,100553.16
2023-02-18T00:06:52.879Z,100549.19
2023-02-18T00:10:53.344Z,100547.31
2023-02-18T00:14:50.834Z,100543.30
2023-02-18T00:18:52.402Z,100527.65
2023-02-18T00:22:38.260Z,100513.75
2023-02-18T00:26:23.628Z,100510.47
2023-02-18T00:30:09.153Z,100513.45
2023-02-18T00:33:54.689Z,100509.73
2023-02-18T00:37:39.935Z,100497.60
2023-02-18T00:41:25.315Z,100492.90
2023-02-18T00:45:10.725Z,100478.29
2023-02-18T00:48:57.172Z,100478.35
2023-02-18T00:52:42.290Z,100474.68
2023-02-18T00:56:34.254Z,100464.30
2023-02-18T01:00:28.009Z,100461.92
2023-02-18T01:04:01.142Z,100447.52
2023-02-18T01:07:53.330Z,100434.18
2023-02-18T01:11:46.844Z,100423.48
2023-02-18T01:15:47.570Z,100408.77
2023-02-18T01:19:44.827Z,100404.66
2023-02-18T01:23:49.520Z,100390.65
2023-02-18T01:27:47.153Z,100377.77
2023-02-18T01:31:48.170Z,100361.48
2023-02-18T01:35:43.992Z,100346.23
2023-02-18T01:39:41.906Z,100326.56
2023-02-18T01:43:27.885Z,100320.13
2023-02-18T01:47:12.911Z,100309.73
2023-02-18T01:50:58.171Z,100301.09
2023-02-18T01:54:43.899Z,100295.66
2023-02-18T01:58:29.326Z,100285.72
2023-02-18T02:02:15.014Z,100268.65
2023-02-18T02:06:07.304Z,100261.96
2023-02-18T02:09:59.569Z,100247.54
2023-02-18T02:13:52.924Z,100242.87
2023-02-18T02:17:52.101Z,100232.84
2023-02-18T02:21:48.587Z,100223.34
2023-02-18T02:25:52.728Z,100207.48
2023-02-18T02:29:48.102Z,100193.42
2023-02-18T02:33:48.470Z,100187.54
2023-02-18T02:37:44.189Z,100178.66
2023-02-18T02:41:48.294Z,100170.83
2023-02-18T02:45:44.418Z,100157.17
2023-02-18T02:49:45.130Z,100153.96
2023-02-18T02:53:41.605Z,100151.71
2023-02-18T02:57:41.210Z,100137.55
2023-02-18T03:01:44.638Z,100128.81
2023-02-18T03:05:44.528Z,100125.48
2023-02-18T03:09:42.244Z,100108.77
2023-02-18T03:13:42.320Z,100103.91
2023-02-18T03:17:38.711Z,100101.36
2023-02-18T03:21:38.591Z,100092.71
2023-02-18T03:25:34.443Z,100085.00
2023-02-18T03:29:34.262Z,100077.38
2023-02-18T03:33:31.708Z,100078.68
2023-02-18T03:37:31.733Z,100072.27
2023-02-18T03:41:28.732Z,100064.38
2023-02-18T03:45:29.355Z,100053.85
2023-02-18T03:49:25.550Z,100046.52
2023-02-18T03:53:25.210Z,100029.65
2023-02-18T03:57:21.361Z,100017.41
2023-02-18T04:01:20.746Z,100009.56
2023-02-18T04:05:22.271Z,100008.17
2023-02-18T04:09:16.055Z,99995.67
2023-02-18T04:13:16.090Z,99991.15
2023-02-18T04:17:16.524Z,99988.77
2023-02-18T04:21:15.914Z,99984.74
2023-02-18T04:25:11.662Z,99967.27
2023-02-18T04:29:15.501Z,99964.59
2023-02-18T04:33:08.604Z,99948.63
2023-02-18T04:37:12.803Z,99951.33
2023-02-18T04:41:09.339Z,99938.95
2023-02-18T04:45:09.750Z,99937.42
2023-02-18T04:49:05.872Z,99921.43
2023-02-18T04:53:04.866Z,99909.80
2023-02-18T04:57:00.767Z,99884.92
2023-02-18T05:00:56.362Z,99869.10
2023-02-18T05:04:59.825Z,99855.69
2023-02-18T05:08:39.489Z,99855.10
2023-02-18T05:12:35.353Z,99845.63
2023-02-18T05:16:34.796Z,99836.61
2023-02-18T05:20:31.350Z,99840.90
2023-02-18T05:24:31.066Z,99834.66
2023-02-18T05:28:24.330Z,99813.47
2023-02-18T05:32:00.997Z,99801.02
2023-02-18T05:36:02.729Z,99792.29
2023-02-18T05:39:58.627Z,99783.84
2023-02-18T05:43:58.162Z,99768.61
2023-02-18T05:47:54.875Z,99757.24
2023-02-18T05:51:54.901Z,99741.44
2023-02-18T05:55:50.571Z,99731.81
2023-02-18T05:59:51.043Z,99722.16
2023-02-18T06:03:48.648Z,99713.45
2023-02-18T06:07:43.792Z,99699.02
2023-02-18T06:11:35.505Z,99700.35
2023-02-18T06:15:29.310Z,99700.36
2023-02-18T06:19:21.416Z,99697.73
2023-02-18T06:23:14.726Z,99698.19
2023-02-18T06:27:06.823Z,99683.00
2023-02-18T06:31:00.581Z,99670.58
2023-02-18T06:34:56.961Z,99658.69
2023-02-18T06:38:48.701Z,99654.38
2023-02-18T06:42:43.636Z,99642.64
2023-02-18T06:46:35.986Z,99606.39
2023-02-18T06:50:29.582Z,99607.48
2023-02-18T06:54:21.001Z,99599.30
2023-02-18T06:58:14.438Z,99611.30
2023-02-18T07:02:05.768Z,99613.88
2023-02-18T07:05:59.646Z,99613.64
2023-02-18T07:09:32.652Z,99611.86
2023-02-18T07:13:24.656Z,99605.33
2023-02-18T07:17:18.678Z,99598.79
2023-02-18T07:21:10.929Z,99590.92
2023-02-18T07:25:04.277Z,99581.82
2023-02-18T07:28:55.962Z,99584.27
2023-02-18T07:32:49.267Z,99580.45
2023-02-18T07:36:41.057Z,99572.95
2023-02-18T07:40:34.679Z,99579.86
2023-02-18T07:44:27.109Z,99545.70
2023-02-18T07:48:20.331Z,99553.85
2023-02-18T07:52:12.110Z,99532.98
2023-02-18T07:56:06.792Z,99545.42
2023-02-18T07:59:58.766Z,99524.11
2023-02-18T08:03:53.694Z,99515.99
2023-02-18T08:07:52.223Z,99527.02
2023-02-18T08:11:54.906Z,99494.08
2023-02-18T08:15:53.200Z,99523.25
2023-02-18T08:19:52.830Z,99522.29
2023-02-18T08:23:51.185Z,99501.83
2023-02-18T08:27:50.834Z,99502.66
2023-02-18T08:31:49.152Z,99492.73
2023-02-18T08:35:51.100Z,99483.20
2023-02-18T08:39:46.972Z,99485.54
2023-02-18T08:43:49.147Z,99488.29
2023-02-18T08:48:19.459Z,99480.68
2023-02-18T08:52:06.625Z,99480.23
2023-02-18T08:56:04.299Z,99477.83
2023-02-18T09:00:07.323Z,99469.17
2023-02-18T09:04:05.354Z,99457.09
2023-02-18T09:08:05.221Z,99453.97
2023-02-18T09:11:50.578Z,99456.65
2023-02-18T09:15:53.300Z,99455.89
2023-02-18T09:19:53.089Z,99453.20
2023-02-18T09:23:51.160Z,99448.95
2023-02-18T09:27:52.174Z,99450.30
2023-02-18T09:31:50.395Z,99444.71
2023-02-18T09:35:42.925Z,99444.92
2023-02-18T09:39:29.111Z,99438.34
2023-02-18T09:43:14.944Z,99442.16
2023-02-18T09:47:01.398Z,99449.04
2023-02-18T09:50:46.892Z,99448.08
2023-02-18T09:54:38.336Z,99443.36
2023-02-18T09:58:36.674Z,99446.55
2023-02-18T10:02:36.316Z,99457.77
2023-02-18T10:06:39.774Z,99504.55
2023-02-18T10:10:37.286Z,99479.44
2023-02-18T10:14:38.047Z,99479.92
2023-02-18T10:18:38.092Z,99469.82
2023-02-18T10:22:33.917Z,99469.18
2023-02-18T10:26:26.400Z,99462.70
2023-02-18T10:30:15.453Z,99455.38
2023-02-18T10:34:01.281Z,99444.55
2023-02-18T10:37:52.923Z,99445.66
2023-02-18T10:41:44.674Z,99450.71
2023-02-18T10:45:36.595Z,99461.02
2023-02-18T10:49:34.231Z,99457.95
2023-02-18T10:53:27.762Z,99450.90
2023-02-18T10:57:25.278Z,99444.34
2023-02-18T11:01:19.441Z,99435.55
2023-02-18T11:05:17.305Z,99430.42
2023-02-18T11:09:12.310Z,99417.95
2023-02-18T11:13:10.613Z,99419.70
2023-02-18T11:17:05.782Z,99421.70
2023-02-18T11:20:51.232Z,99419.02
2023-02-18T11:24:36.480Z,99417.41
2023-02-18T11:28:27.637Z,99425.15
2023-02-18T11:32:20.752Z,99424.05
2023-02-18T11:36:17.835Z,99422.41
2023-02-18T11:40:15.275Z,99426.35
2023-02-18T11:44:14.480Z,99437.96
2023-02-18T11:48:07.686Z,99443.08
2023-02-18T11:52:05.053Z,99449.20
2023-02-18T11:55:58.576Z,99447.97
2023-02-18T11:59:56.505Z,99450.92
2023-02-18T12:03:42.016Z,99448.41
2023-02-18T12:07:27.907Z,99454.28
2023-02-18T12:11:20.087Z,99445.88
2023-02-18T12:15:23.631Z,99437.85
2023-02-18T12:19:24.160Z,99446.11
2023-02-18T12:23:22.319Z,99445.02
2023-02-18T12:27:16.192Z,99455.48
2023-02-18T12:31:14.141Z,99456.14
2023-02-18T12:35:14.101Z,99462.19
2023-02-18T12:39:06.685Z,99458.80
2023-02-18T12:43:05.135Z,99460.22
2023-02-18T12:46:51.047Z,99459.67
2023-02-18T12:50:36.744Z,99460.98
2023-02-18T12:54:22.061Z,99461.66
2023-02-18T12:58:22.129Z,99458.03
2023-02-18T13:02:14.532Z,99461.96
2023-02-18T13:06:14.160Z,99464.66
2023-02-18T13:10:12.453Z,99470.27
2023-02-18T13:14:06.024Z,99468.98
2023-02-18T13:17:46.203Z,99476.73
2023-02-18T13:21:38.776Z,99478.55
2023-02-18T13:25:39.044Z,99483.98
2023-02-18T13:29:28.442Z,99482.77
2023-02-18T13:33:19.609Z,99484.80
2023-02-18T13:37:21.118Z,99489.17
2023-02-18T13:41:22.299Z,99489.15
2023-02-18T13:45:26.683Z,99496.42
2023-02-18T13:49:20.640Z,99499.15
2023-02-18T13:52:53.578Z,99497.79
2023-02-18T13:56:51.340Z,99508.76
2023-02-18T14:00:42.725Z,99513.75
2023-02-18T14:04:38.064Z,99515.25
2023-02-18T14:08:35.389Z,99518.80
2023-02-18T14:12:33.802Z,99519.26
2023-02-18T14:16:27.462Z,99521.91
2023-02-18T14:20:25.596Z,99520.94
2023-02-18T14:24:25.229Z,99524.73
2023-02-18T14:28:22.684Z,99525.01
2023-02-18T14:32:14.393Z,99526.61
2023-02-18T14:36:06.260Z,99526.10
2023-02-18T14:40:03.964Z,99533.48
2023-02-18T14:44:03.538Z,99537.29
2023-02-18T14:48:04.312Z,99544.65
2023-02-18T14:52:02.630Z,99544.73
2023-02-18T14:55:56.511Z,99543.33
2023-02-18T14:59:55.809Z,99539.02
2023-02-18T15:03:56.314Z,99542.17
2023-02-18T15:07:45.682Z,99545.27
2023-02-18T15:11:37.873Z,99545.73
2023-02-18T15:15:41.548Z,99549.80
2023-02-18T15:19:41.323Z,99552.33
2023-02-18T15:23:41.615Z,99554.72
2023-02-18T15:27:35.528Z,99556.23
2023-02-18T15:31:33.900Z,99553.54
2023-02-18T15:35:35.425Z,99560.30
2023-02-18T15:39:26.333Z,99561.67
2023-02-18T15:43:24.448Z,99561.63
2023-02-18T15:47:20.272Z,99564.98
2023-02-18T15:51:20.743Z,99564.21
2023-02-18T15:55:12.819Z,99567.69
2023-02-18T15:59:13.594Z,99567.64
2023-02-18T16:03:05.816Z,99567.96
2023-02-18T16:07:01.651Z,99573.30
2023-02-18T16:11:03.063Z,99575.52
2023-02-18T16:14:59.573Z,99573.52
2023-02-18T16:18:59.274Z,99577.20
2023-02-18T16:22:54.870Z,99582.19
2023-02-18T16:26:53.698Z,99585.05
2023-02-18T16:30:43.333Z,99590.87
2023-02-18T16:34:28.696Z,99590.97
2023-02-18T16:38:14.269Z,99602.73
2023-02-18T16:41:59.966Z,99599.25
2023-02-18T16:45:46.512Z,99603.94
2023-02-18T16:49:43.151Z,99607.30
2023-02-18T16:53:45.260Z,99606.35
2023-02-18T16:57:41.106Z,99614.21
2023-02-18T17:01:41.298Z,99614.23
2023-02-18T17:05:39.111Z,99615.35
2023-02-18T17:09:39.123Z,99616.09
2023-02-18T17:13:34.893Z,99621.21
2023-02-18T17:17:34.177Z,99618.13
2023-02-18T17:21:33.143Z,99618.43
2023-02-18T17:25:33.027Z,99617.57
2023-02-18T17:29:27.940Z,99618.10
2023-02-18T17:33:31.271Z,99620.06
2023-02-18T17:37:27.221Z,99616.29
2023-02-18T17:41:27.052Z,99618.63
2023-02-18T17:45:22.699Z,99616.70
2023-02-18T17:49:22.826Z,99619.98
2023-02-18T17:53:19.239Z,99623.89
2023-02-18T17:57:16.616Z,99623.67
2023-02-18T18:01:17.606Z,99619.84
2023-02-18T18:05:17.613Z,99618.13
2023-02-18T18:09:15.192Z,99625.99
2023-02-18T18:13:19.038Z,99618.88
2023-02-18T18:17:14.719Z,99620.75
2023-02-18T18:21:11.979Z,99618.04
2023-02-18T18:25:06.673Z,99615.79
2023-02-18T18:29:06.715Z,99609.59
2023-02-18T18:33:05.956Z,99614.84
2023-02-18T18:37:05.327Z,99617.77
2023-02-18T18:41:01.155Z,99617.21
2023-02-18T18:45:02.459Z,99618.48
2023-02-18T18:48:55.742Z,99617.54
2023-02-18T18:52:59.074Z,99615.05
2023-02-18T18:56:54.881Z,99619.13
2023-02-18T19:00:55.059Z,99622.69
2023-02-18T19:04:51.089Z,99622.23
2023-02-18T19:08:51.217Z,99627.30
2023-02-18T19:12:49.882Z,99624.78
2023-02-18T19:16:47.516Z,99626.54
2023-02-18T19:20:49.198Z,99626.79
2023-02-18T19:24:49.625Z,99624.98
2023-02-18T19:28:49.486Z,99621.04
2023-02-18T19:32:51.107Z,99616.08
2023-02-18T19:36:48.637Z,99616.91
2023-02-18T19:40:46.141Z,99614.64
2023-02-18T19:47:15.398Z,99615.77
2023-02-18T19:51:13.351Z,99615.40
2023-02-18T19:55:09.096Z,99611.23
2023-02-18T19:59:13.689Z,99608.83
2023-02-18T20:03:14.282Z,99615.33
2023-02-18T20:07:14.943Z,99619.42
2023-02-18T20:11:08.345Z,99622.27
2023-02-18T20:15:00.664Z,99619.33
2023-02-18T20:19:00.044Z,99612.69
2023-02-18T20:22:54.310Z,99614.98
2023-02-18T20:26:49.280Z,99611.23
2023-02-18T20:30:35.371Z,99617.87
2023-02-18T20:34:21.052Z,99614.13
2023-02-18T20:38:06.669Z,99610.15
2023-02-18T20:42:02.909Z,99608.48
2023-02-18T20:46:01.189Z,99600.52
2023-02-18T20:49:52.981Z,99602.99
2023-02-18T20:53:50.551Z,99603.41
2023-02-18T20:57:42.111Z,99602.70
2023-02-18T21:01:35.490Z,99609.24
2023-02-18T21:05:32.128Z,99606.23
2023-02-18T21:09:26.264Z,99606.66
2023-02-18T21:13:20.216Z,99607.98
2023-02-18T21:16:56.290Z,99602.20
2023-02-18T21:20:51.198Z,99600.26
2023-02-18T21:24:44.157Z,99593.63
2023-02-18T21:28:37.026Z,99598.00
2023-02-18T21:32:29.151Z,99600.48
2023-02-18T21:36:20.875Z,99597.04
2023-02-18T21:40:14.385Z,99595.37
2023-02-18T21:44:06.192Z,99595.77
2023-02-18T21:47:58.238Z,99593.56
2023-02-18T21:51:51.785Z,99591.32
2023-02-18T21:55:55.288Z,99588.94
2023-02-18T21:59:54.462Z,99602.61
2023-02-18T22:03:49.270Z,99591.14
2023-02-18T22:07:45.267Z,99594.89
2023-02-18T22:11:37.399Z,99597.88
2023-02-18T22:15:29.997Z,99596.85
2023-02-18T22:19:25.297Z,99599.48
2023-02-18T22:23:18.921Z,99607.20
2023-02-18T22:27:10.922Z,99601.90
2023-02-18T22:31:02.866Z,99600.37
2023-02-18T22:34:54.782Z,99607.27
2023-02-18T22:38:47.041Z,99599.21
2023-02-18T22:42:39.053Z,99585.65
2023-02-18T22:46:31.456Z,99592.98
2023-02-18T22:50:23.312Z,99596.56
2023-02-18T22:54:16.185Z,99601.36
2023-02-18T22:58:08.061Z,99606.59
2023-02-18T23:02:00.148Z,99601.14
2023-02-18T23:05:52.084Z,99611.35
2023-02-18T23:09:45.478Z,99610.46
2023-02-18T23:13:37.148Z,99604.29
2023-02-18T23:17:29.490Z,99603.23
2023-02-18T23:21:25.301Z,99595.86
2023-02-18T23:25:18.485Z,99595.20
2023-02-18T23:29:10.397Z,99601.55
2023-02-18T23:33:02.381Z,99606.64
2023-02-18T23:36:54.236Z,99608.95
2023-02-18T23:40:46.913Z,99604.95
2023-02-18T23:44:42.565Z,99608.64
2023-02-18T23:48:38.132Z,99610.27
2023-02-18T23:52:29.880Z,99610.86
2023-02-18T23:56:22.010Z,99614.84
